Saskatoon John G. Diefenbaker International Airport
CYXE : now visible

Airfield :











YOU CAN JOIN US ON...

 
LOGIN :

Register | Disclaimer

   EN    FR    IT 

 









Legend :    VFR   Marginal VFR   IFR   Intensive IFR   Very Intensive IFR
Visi :
Ceiling :
>= 8 km
>= 3000ft
5 to 8 km
1000 to 3000 ft
1500m to 5 km
500 to 1000 ft
800 to 1500m
200 to 500 ft
< 800m
< 200 ft
Symbols :   Thunderstorms  Fog  Heavy snow  Heavy precipitations  Wind > 20 kt






- Airport Elevation : 1653 ft
- IATA code : YXE


CYXE - Saskatoon John G. Diefenbaker International

CURRENT METAR :
  • 301900Z 31013G21KT 15SM FEW063 FEW300 20/04 A2999 RMK CU1CI1 CU TR SLP165 DENSITY ALT 2600FT

EXPIRED METARs :
  • 301800Z 32015KT 15SM FEW300 19/04 A2999 RMK CI1 SLP166 DENSITY ALT 2500FT
  • 301700Z 33016KT 15SM FEW062 FEW300 19/03 A2999 RMK CU1CI1 CU TR SLP166 DENSITY ALT 2400FT

TAF TAF CYXE
Valid from the 30 at 18:00 until the 01 at 18:00 UTC


301740Z 3018/0118 33015KT P6SM FEW060 FEW300
FM010300 30008KT P6SM FEW060
BECMG 0107/0109 VRB03KT
FM011400 09005KT P6SM BKN080
BECMG 0116/0118 05008KT RMK NXT FCST BY 010000Z
CZWG FIR / North America



MET'MAP, your aeronautical weather chart ! - Copyright ORBIFLY December 2007 - Disclaimer

ORBIFLY MET'MAP TEAM :

Programming & Development : Alexandra Zaïnal
Original concept : Baudouin d'Aumeries
Technical & hardware support : Manuel Goepfert
Assistance : Marc-Olivier Méhu




SOURCES & CREDITS :

   NOAA       Earth
Advisory